sensor_id;sensor_type;location;lat;lon;timestamp;pressure;altitude;pressure_sealevel;temperature;humidity
49801;BME280;35698;50.232;30.540;2023-03-03T00:00:37;100634.83;;;2.42;100.00
49801;BME280;35698;50.232;30.540;2023-03-03T00:01:48;100638.00;;;2.59;100.00
49801;BME280;35698;50.232;30.540;2023-03-03T00:02:51;100641.58;;;2.54;100.00
49801;BME280;35698;50.232;30.540;2023-03-03T00:03:55;100630.20;;;2.58;100.00
49801;BME280;35698;50.232;30.540;2023-03-03T00:05:16;100628.28;;;2.66;100.00
49801;BME280;35698;50.232;30.540;2023-03-03T00:06:27;100627.13;;;2.81;100.00
49801;BME280;35698;50.232;30.540;2023-03-03T00:07:30;100629.97;;;2.69;100.00
49801;BME280;35698;50.232;30.540;2023-03-03T00:08:34;100619.42;;;2.75;100.00
49801;BME280;35698;50.232;30.540;2023-03-03T00:09:45;100621.73;;;2.90;100.00
49801;BME280;35698;50.232;30.540;2023-03-03T00:10:49;100623.60;;;2.83;100.00
49801;BME280;35698;50.232;30.540;2023-03-03T00:12:02;100617.22;;;2.98;100.00
49801;BME280;35698;50.232;30.540;2023-03-03T00:13:19;100624.22;;;2.96;100.00
49801;BME280;35698;50.232;30.540;2023-03-03T00:14:32;100617.09;;;3.04;100.00
49801;BME280;35698;50.232;30.540;2023-03-03T00:15:54;100619.89;;;2.95;100.00
49801;BME280;35698;50.232;30.540;2023-03-03T00:17:22;100624.93;;;3.04;100.00
49801;BME280;35698;50.232;30.540;2023-03-03T00:18:36;100616.72;;;3.22;100.00
49801;BME280;35698;50.232;30.540;2023-03-03T00:19:40;100622.12;;;3.13;100.00
49801;BME280;35698;50.232;30.540;2023-03-03T00:21:04;100616.15;;;3.08;100.00
49801;BME280;35698;50.232;30.540;2023-03-03T00:22:24;100618.38;;;3.26;100.00
49801;BME280;35698;50.232;30.540;2023-03-03T00:23:52;100611.44;;;3.25;100.00
49801;BME280;35698;50.232;30.540;2023-03-03T00:25:33;100609.97;;;3.12;100.00
49801;BME280;35698;50.232;30.540;2023-03-03T00:26:57;100608.06;;;3.20;100.00
49801;BME280;35698;50.232;30.540;2023-03-03T00:28:27;100600.86;;;3.32;100.00
49801;BME280;35698;50.232;30.540;2023-03-03T00:29:52;100603.80;;;3.16;100.00
49801;BME280;35698;50.232;30.540;2023-03-03T00:31:17;100595.20;;;3.11;100.00
49801;BME280;35698;50.232;30.540;2023-03-03T00:32:43;100599.97;;;3.33;100.00
49801;BME280;35698;50.232;30.540;2023-03-03T00:34:26;100593.95;;;3.29;100.00
49801;BME280;35698;50.232;30.540;2023-03-03T00:35:48;100595.56;;;3.35;100.00
49801;BME280;35698;50.232;30.540;2023-03-03T00:36:59;100591.69;;;3.51;100.00
49801;BME280;35698;50.232;30.540;2023-03-03T00:38:20;100586.88;;;3.34;100.00
49801;BME280;35698;50.232;30.540;2023-03-03T00:39:41;100585.09;;;3.36;100.00
49801;BME280;35698;50.232;30.540;2023-03-03T00:40:52;100583.20;;;3.43;100.00
49801;BME280;35698;50.232;30.540;2023-03-03T00:42:15;100576.50;;;3.31;100.00
49801;BME280;35698;50.232;30.540;2023-03-03T00:43:37;100586.15;;;3.27;100.00
49801;BME280;35698;50.232;30.540;2023-03-03T00:44:56;100578.70;;;3.48;100.00
49801;BME280;35698;50.232;30.540;2023-03-03T00:46:20;100578.16;;;3.35;100.00
49801;BME280;35698;50.232;30.540;2023-03-03T00:47:37;100574.30;;;3.50;100.00
49801;BME280;35698;50.232;30.540;2023-03-03T00:48:58;100573.65;;;3.42;100.00
49801;BME280;35698;50.232;30.540;2023-03-03T00:51:28;100569.83;;;3.55;100.00
49801;BME280;35698;50.232;30.540;2023-03-03T00:52:44;100569.51;;;3.69;100.00
49801;BME280;35698;50.232;30.540;2023-03-03T00:53:48;100569.69;;;3.61;100.00
49801;BME280;35698;50.232;30.540;2023-03-03T00:54:51;100570.62;;;3.58;100.00
49801;BME280;35698;50.232;30.540;2023-03-03T00:55:55;100564.85;;;3.46;100.00
49801;BME280;35698;50.232;30.540;2023-03-03T00:57:06;100566.82;;;3.72;100.00
49801;BME280;35698;50.232;30.540;2023-03-03T00:58:10;100564.50;;;3.59;100.00
49801;BME280;35698;50.232;30.540;2023-03-03T00:59:21;100561.34;;;3.82;100.00
49801;BME280;35698;50.232;30.540;2023-03-03T01:00:24;100564.92;;;3.78;100.00
49801;BME280;35698;50.232;30.540;2023-03-03T01:01:35;100559.44;;;3.89;100.00
49801;BME280;35698;50.232;30.540;2023-03-03T01:02:39;100560.02;;;3.65;100.00
49801;BME280;35698;50.232;30.540;2023-03-03T01:03:43;100556.66;;;3.59;100.00
49801;BME280;35698;50.232;30.540;2023-03-03T01:04:49;100556.48;;;3.67;100.00
49801;BME280;35698;50.232;30.540;2023-03-03T01:06:00;100555.41;;;3.76;100.00
49801;BME280;35698;50.232;30.540;2023-03-03T01:07:04;100554.55;;;3.75;100.00
49801;BME280;35698;50.232;30.540;2023-03-03T01:08:07;100557.16;;;3.75;100.00
49801;BME280;35698;50.232;30.540;2023-03-03T01:09:11;100554.39;;;3.81;100.00
49801;BME280;35698;50.232;30.540;2023-03-03T01:10:22;100554.17;;;3.90;100.00
49801;BME280;35698;50.232;30.540;2023-03-03T01:11:26;100548.45;;;3.75;100.00
49801;BME280;35698;50.232;30.540;2023-03-03T01:12:38;100552.83;;;3.74;100.00
49801;BME280;35698;50.232;30.540;2023-03-03T01:13:43;100545.25;;;3.63;100.00
49801;BME280;35698;50.232;30.540;2023-03-03T01:14:55;100546.67;;;3.77;100.00
49801;BME280;35698;50.232;30.540;2023-03-03T01:15:59;100554.95;;;3.58;100.00
49801;BME280;35698;50.232;30.540;2023-03-03T01:17:15;100542.45;;;3.71;100.00
49801;BME280;35698;50.232;30.540;2023-03-03T01:18:18;100546.11;;;3.64;100.00
49801;BME280;35698;50.232;30.540;2023-03-03T01:19:22;100546.92;;;3.66;100.00
49801;BME280;35698;50.232;30.540;2023-03-03T01:20:25;100543.67;;;3.56;100.00
49801;BME280;35698;50.232;30.540;2023-03-03T01:21:28;100551.62;;;3.52;100.00
49801;BME280;35698;50.232;30.540;2023-03-03T01:22:40;100545.10;;;3.70;100.00
49801;BME280;35698;50.232;30.540;2023-03-03T01:23:44;100543.09;;;3.45;100.00
49801;BME280;35698;50.232;30.540;2023-03-03T01:24:55;100547.22;;;3.54;100.00
49801;BME280;35698;50.232;30.540;2023-03-03T01:25:59;100544.81;;;3.46;100.00
49801;BME280;35698;50.232;30.540;2023-03-03T01:27:03;100539.63;;;3.45;100.00
49801;BME280;35698;50.232;30.540;2023-03-03T01:28:14;100543.17;;;3.42;100.00
49801;BME280;35698;50.232;30.540;2023-03-03T01:29:17;100542.66;;;3.26;100.00
49801;BME280;35698;50.232;30.540;2023-03-03T01:30:29;100546.92;;;3.31;100.00
49801;BME280;35698;50.232;30.540;2023-03-03T01:31:33;100540.05;;;3.26;100.00
49801;BME280;35698;50.232;30.540;2023-03-03T01:33:00;100542.52;;;3.33;100.00
49801;BME280;35698;50.232;30.540;2023-03-03T01:34:19;100535.58;;;3.32;100.00
49801;BME280;35698;50.232;30.540;2023-03-03T01:35:23;100538.98;;;3.35;100.00
49801;BME280;35698;50.232;30.540;2023-03-03T01:36:34;100539.66;;;3.43;100.00
49801;BME280;35698;50.232;30.540;2023-03-03T01:37:37;100536.44;;;3.32;100.00
49801;BME280;35698;50.232;30.540;2023-03-03T01:38:59;100539.05;;;3.32;100.00
49801;BME280;35698;50.232;30.540;2023-03-03T01:40:25;100537.40;;;3.28;100.00
49801;BME280;35698;50.232;30.540;2023-03-03T01:41:37;100539.12;;;3.29;100.00
49801;BME280;35698;50.232;30.540;2023-03-03T01:42:41;100530.43;;;3.28;100.00
49801;BME280;35698;50.232;30.540;2023-03-03T01:44:02;100533.00;;;3.30;100.00
49801;BME280;35698;50.232;30.540;2023-03-03T01:48:22;100524.61;;;3.53;100.00
49801;BME280;35698;50.232;30.540;2023-03-03T01:49:33;100523.95;;;3.45;100.00
49801;BME280;35698;50.232;30.540;2023-03-03T01:51:22;100516.91;;;3.47;100.00
49801;BME280;35698;50.232;30.540;2023-03-03T01:52:43;100524.20;;;3.34;100.00
49801;BME280;35698;50.232;30.540;2023-03-03T01:54:00;100510.54;;;3.58;100.00
49801;BME280;35698;50.232;30.540;2023-03-03T01:55:07;100517.70;;;3.50;100.00
49801;BME280;35698;50.232;30.540;2023-03-03T01:56:29;100514.41;;;3.44;100.00
49801;BME280;35698;50.232;30.540;2023-03-03T01:57:57;100515.66;;;3.27;100.00
49801;BME280;35698;50.232;30.540;2023-03-03T02:01:51;100511.91;;;3.39;100.00
49801;BME280;35698;50.232;30.540;2023-03-03T02:04:25;100512.47;;;3.50;100.00
49801;BME280;35698;50.232;30.540;2023-03-03T02:05:37;100502.81;;;3.54;100.00
49801;BME280;35698;50.232;30.540;2023-03-03T02:06:49;100505.71;;;3.43;100.00
49801;BME280;35698;50.232;30.540;2023-03-03T02:07:59;100501.42;;;3.41;100.00
49801;BME280;35698;50.232;30.540;2023-03-03T02:09:13;100502.64;;;3.26;100.00
49801;BME280;35698;50.232;30.540;2023-03-03T02:10:23;100498.77;;;3.42;100.00
49801;BME280;35698;50.232;30.540;2023-03-03T02:11:29;100496.38;;;3.33;100.00
49801;BME280;35698;50.232;30.540;2023-03-03T02:12:44;100498.55;;;3.50;100.00
49801;BME280;35698;50.232;30.540;2023-03-03T02:13:48;100497.20;;;3.35;100.00
49801;BME280;35698;50.232;30.540;2023-03-03T02:14:52;100500.56;;;3.40;100.00
49801;BME280;35698;50.232;30.540;2023-03-03T02:16:03;100503.20;;;3.39;100.00
49801;BME280;35698;50.232;30.540;2023-03-03T02:17:07;100503.53;;;3.25;100.00
49801;BME280;35698;50.232;30.540;2023-03-03T02:18:13;100499.02;;;3.32;100.00
49801;BME280;35698;50.232;30.540;2023-03-03T02:19:34;100501.39;;;3.42;100.00
49801;BME280;35698;50.232;30.540;2023-03-03T02:22:08;100492.91;;;3.33;100.00
49801;BME280;35698;50.232;30.540;2023-03-03T02:26:11;100495.61;;;3.63;100.00
49801;BME280;35698;50.232;30.540;2023-03-03T02:27:16;100501.24;;;3.47;100.00
49801;BME280;35698;50.232;30.540;2023-03-03T02:28:29;100485.31;;;3.57;100.00
49801;BME280;35698;50.232;30.540;2023-03-03T02:29:33;100502.89;;;3.51;100.00
49801;BME280;35698;50.232;30.540;2023-03-03T02:30:38;100493.33;;;3.50;100.00
49801;BME280;35698;50.232;30.540;2023-03-03T02:31:49;100486.86;;;3.31;100.00
49801;BME280;35698;50.232;30.540;2023-03-03T02:32:53;100495.77;;;3.22;100.00
49801;BME280;35698;50.232;30.540;2023-03-03T02:33:57;100489.48;;;3.31;100.00
49801;BME280;35698;50.232;30.540;2023-03-03T02:35:00;100488.51;;;3.35;100.00
49801;BME280;35698;50.232;30.540;2023-03-03T02:39:19;100483.89;;;3.46;100.00
49801;BME280;35698;50.232;30.540;2023-03-03T02:44:00;100478.48;;;3.52;100.00
49801;BME280;35698;50.232;30.540;2023-03-03T02:45:05;100479.27;;;3.55;100.00
49801;BME280;35698;50.232;30.540;2023-03-03T02:46:23;100477.36;;;3.62;100.00
49801;BME280;35698;50.232;30.540;2023-03-03T02:47:50;100483.14;;;3.41;100.00
49801;BME280;35698;50.232;30.540;2023-03-03T02:49:13;100482.17;;;3.45;100.00
49801;BME280;35698;50.232;30.540;2023-03-03T02:50:37;100477.66;;;3.50;100.00
49801;BME280;35698;50.232;30.540;2023-03-03T02:51:43;100477.73;;;3.47;100.00
49801;BME280;35698;50.232;30.540;2023-03-03T02:52:46;100474.05;;;3.55;100.00
49801;BME280;35698;50.232;30.540;2023-03-03T02:53:50;100470.58;;;3.55;100.00
49801;BME280;35698;50.232;30.540;2023-03-03T02:54:53;100470.45;;;3.59;100.00
49801;BME280;35698;50.232;30.540;2023-03-03T02:56:05;100473.66;;;3.71;100.00
49801;BME280;35698;50.232;30.540;2023-03-03T02:57:08;100476.42;;;3.65;100.00
49801;BME280;35698;50.232;30.540;2023-03-03T02:58:30;100474.41;;;3.76;100.00
49801;BME280;35698;50.232;30.540;2023-03-03T02:59:33;100480.52;;;3.75;100.00
49801;BME280;35698;50.232;30.540;2023-03-03T03:00:44;100462.97;;;3.80;100.00
49801;BME280;35698;50.232;30.540;2023-03-03T03:01:48;100473.34;;;3.83;100.00
49801;BME280;35698;50.232;30.540;2023-03-03T03:03:10;100470.70;;;3.84;100.00
49801;BME280;35698;50.232;30.540;2023-03-03T03:04:19;100466.52;;;3.77;100.00
49801;BME280;35698;50.232;30.540;2023-03-03T03:05:22;100471.78;;;3.76;100.00
49801;BME280;35698;50.232;30.540;2023-03-03T03:06:33;100463.33;;;3.66;100.00
49801;BME280;35698;50.232;30.540;2023-03-03T03:07:37;100460.23;;;3.50;100.00
49801;BME280;35698;50.232;30.540;2023-03-03T03:08:58;100466.12;;;3.58;100.00
49801;BME280;35698;50.232;30.540;2023-03-03T03:10:10;100469.25;;;3.73;100.00
49801;BME280;35698;50.232;30.540;2023-03-03T03:11:13;100461.13;;;3.49;100.00
49801;BME280;35698;50.232;30.540;2023-03-03T03:12:24;100458.26;;;3.60;100.00
49801;BME280;35698;50.232;30.540;2023-03-03T03:13:27;100467.96;;;3.55;100.00
49801;BME280;35698;50.232;30.540;2023-03-03T03:14:31;100464.45;;;3.56;100.00
49801;BME280;35698;50.232;30.540;2023-03-03T03:15:35;100462.55;;;3.62;100.00
49801;BME280;35698;50.232;30.540;2023-03-03T03:16:46;100450.23;;;3.68;100.00
49801;BME280;35698;50.232;30.540;2023-03-03T03:17:50;100454.23;;;3.47;100.00
49801;BME280;35698;50.232;30.540;2023-03-03T03:19:01;100456.19;;;3.73;100.00
49801;BME280;35698;50.232;30.540;2023-03-03T03:20:06;100444.64;;;3.47;100.00
49801;BME280;35698;50.232;30.540;2023-03-03T03:21:17;100447.58;;;3.69;100.00
49801;BME280;35698;50.232;30.540;2023-03-03T03:22:21;100445.20;;;3.60;100.00
49801;BME280;35698;50.232;30.540;2023-03-03T03:23:33;100451.39;;;3.56;100.00
49801;BME280;35698;50.232;30.540;2023-03-03T03:24:36;100446.09;;;3.59;100.00
49801;BME280;35698;50.232;30.540;2023-03-03T03:25:40;100446.83;;;3.64;100.00
49801;BME280;35698;50.232;30.540;2023-03-03T03:26:43;100445.86;;;3.68;100.00
49801;BME280;35698;50.232;30.540;2023-03-03T03:27:47;100443.17;;;3.71;100.00
49801;BME280;35698;50.232;30.540;2023-03-03T03:28:58;100450.11;;;3.72;100.00
49801;BME280;35698;50.232;30.540;2023-03-03T03:30:01;100450.50;;;3.57;100.00
49801;BME280;35698;50.232;30.540;2023-03-03T03:31:13;100448.74;;;3.57;100.00
49801;BME280;35698;50.232;30.540;2023-03-03T03:32:16;100451.98;;;3.33;100.00
49801;BME280;35698;50.232;30.540;2023-03-03T03:33:20;100448.56;;;3.31;100.00
49801;BME280;35698;50.232;30.540;2023-03-03T03:34:31;100447.88;;;3.57;100.00
49801;BME280;35698;50.232;30.540;2023-03-03T03:35:34;100450.58;;;3.54;100.00
49801;BME280;35698;50.232;30.540;2023-03-03T03:36:45;100453.69;;;3.68;100.00
49801;BME280;35698;50.232;30.540;2023-03-03T03:37:49;100455.27;;;3.41;100.00
49801;BME280;35698;50.232;30.540;2023-03-03T03:39:00;100443.48;;;3.59;100.00
49801;BME280;35698;50.232;30.540;2023-03-03T03:40:04;100443.48;;;3.59;100.00
49801;BME280;35698;50.232;30.540;2023-03-03T03:41:10;100446.83;;;3.64;100.00
49801;BME280;35698;50.232;30.540;2023-03-03T03:42:21;100439.50;;;3.78;100.00
49801;BME280;35698;50.232;30.540;2023-03-03T03:43:25;100442.31;;;3.71;100.00
49801;BME280;35698;50.232;30.540;2023-03-03T03:44:28;100445.04;;;3.66;100.00
49801;BME280;35698;50.232;30.540;2023-03-03T03:45:41;100445.81;;;3.70;100.00
49801;BME280;35698;50.232;30.540;2023-03-03T03:47:18;100435.52;;;3.63;100.00
49801;BME280;35698;50.232;30.540;2023-03-03T03:48:24;100428.97;;;3.47;100.00
49801;BME280;35698;50.232;30.540;2023-03-03T03:49:28;100431.16;;;3.64;100.00
49801;BME280;35698;50.232;30.540;2023-03-03T03:50:39;100432.39;;;3.83;100.00
49801;BME280;35698;50.232;30.540;2023-03-03T03:51:42;100431.08;;;3.67;100.00
49801;BME280;35698;50.232;30.540;2023-03-03T03:52:53;100428.04;;;3.50;100.00
49801;BME280;35698;50.232;30.540;2023-03-03T03:53:57;100434.91;;;3.54;100.00
49801;BME280;35698;50.232;30.540;2023-03-03T03:55:08;100426.59;;;3.72;100.00
49801;BME280;35698;50.232;30.540;2023-03-03T03:56:12;100424.38;;;3.57;100.00
49801;BME280;35698;50.232;30.540;2023-03-03T03:57:23;100426.55;;;3.74;100.00
49801;BME280;35698;50.232;30.540;2023-03-03T03:58:28;100433.73;;;3.66;100.00
49801;BME280;35698;50.232;30.540;2023-03-03T03:59:32;100430.22;;;3.67;100.00
49801;BME280;35698;50.232;30.540;2023-03-03T04:00:53;100426.52;;;3.75;100.00
49801;BME280;35698;50.232;30.540;2023-03-03T04:02:04;100431.29;;;3.92;100.00
49801;BME280;35698;50.232;30.540;2023-03-03T04:03:08;100426.47;;;3.77;100.00
49801;BME280;35698;50.232;30.540;2023-03-03T04:04:19;100419.90;;;3.94;100.00
49801;BME280;35698;50.232;30.540;2023-03-03T04:05:23;100428.23;;;3.76;100.00
49801;BME280;35698;50.232;30.540;2023-03-03T04:06:34;100420.06;;;3.88;100.00
49801;BME280;35698;50.232;30.540;2023-03-03T04:07:37;100424.39;;;3.89;100.00
49801;BME280;35698;50.232;30.540;2023-03-03T04:08:41;100418.83;;;3.69;100.00
49801;BME280;35698;50.232;30.540;2023-03-03T04:10:03;100414.51;;;3.68;100.00
49801;BME280;35698;50.232;30.540;2023-03-03T04:11:25;100423.94;;;3.74;100.00
49801;BME280;35698;50.232;30.540;2023-03-03T04:12:28;100428.04;;;3.50;100.00
49801;BME280;35698;50.232;30.540;2023-03-03T04:13:40;100421.25;;;3.77;100.00
49801;BME280;35698;50.232;30.540;2023-03-03T04:14:43;100422.34;;;3.68;100.00
49801;BME280;35698;50.232;30.540;2023-03-03T04:15:46;100426.36;;;3.47;100.00
49801;BME280;35698;50.232;30.540;2023-03-03T04:17:14;100421.92;;;3.51;100.00
49801;BME280;35698;50.232;30.540;2023-03-03T04:18:22;100420.86;;;3.58;100.00
49801;BME280;35698;50.232;30.540;2023-03-03T04:19:26;100410.53;;;3.53;100.00
49801;BME280;35698;50.232;30.540;2023-03-03T04:20:29;100416.70;;;3.51;100.00
49801;BME280;35698;50.232;30.540;2023-03-03T04:21:40;100413.97;;;3.55;100.00
49801;BME280;35698;50.232;30.540;2023-03-03T04:22:44;100404.69;;;3.45;100.00
49801;BME280;35698;50.232;30.540;2023-03-03T04:23:47;100414.27;;;3.45;100.00
49801;BME280;35698;50.232;30.540;2023-03-03T04:24:59;100415.60;;;3.59;100.00
49801;BME280;35698;50.232;30.540;2023-03-03T04:26:03;100407.33;;;3.44;100.00
49801;BME280;35698;50.232;30.540;2023-03-03T04:27:14;100413.81;;;3.61;100.00
49801;BME280;35698;50.232;30.540;2023-03-03T04:28:18;100406.08;;;3.24;100.00
49801;BME280;35698;50.232;30.540;2023-03-03T04:29:21;100407.56;;;3.35;100.00
49801;BME280;35698;50.232;30.540;2023-03-03T04:30:44;100401.41;;;3.37;100.00
49801;BME280;35698;50.232;30.540;2023-03-03T04:31:48;100402.07;;;3.45;100.00
49801;BME280;35698;50.232;30.540;2023-03-03T04:32:59;100400.24;;;3.47;100.00
49801;BME280;35698;50.232;30.540;2023-03-03T04:34:03;100401.96;;;3.48;100.00
49801;BME280;35698;50.232;30.540;2023-03-03T04:35:07;100398.68;;;3.42;100.00
49801;BME280;35698;50.232;30.540;2023-03-03T04:36:21;100396.66;;;3.51;100.00
49801;BME280;35698;50.232;30.540;2023-03-03T04:37:24;100393.23;;;3.49;100.00
49801;BME280;35698;50.232;30.540;2023-03-03T04:38:28;100395.21;;;3.41;100.00
49801;BME280;35698;50.232;30.540;2023-03-03T04:39:31;100389.02;;;3.45;100.00
49801;BME280;35698;50.232;30.540;2023-03-03T04:40:54;100388.78;;;3.53;100.00
49801;BME280;35698;50.232;30.540;2023-03-03T04:42:06;100380.21;;;3.48;100.00
49801;BME280;35698;50.232;30.540;2023-03-03T04:43:10;100389.68;;;3.52;100.00
49801;BME280;35698;50.232;30.540;2023-03-03T04:44:13;100381.69;;;3.58;100.00
49801;BME280;35698;50.232;30.540;2023-03-03T04:45:17;100389.31;;;3.66;100.00
49801;BME280;35698;50.232;30.540;2023-03-03T04:46:31;100391.44;;;3.84;100.00
49801;BME280;35698;50.232;30.540;2023-03-03T04:47:34;100384.65;;;3.46;100.00
49801;BME280;35698;50.232;30.540;2023-03-03T04:48:38;100391.47;;;3.50;100.00
49801;BME280;35698;50.232;30.540;2023-03-03T04:49:44;100379.97;;;3.57;100.00
49801;BME280;35698;50.232;30.540;2023-03-03T04:50:48;100384.17;;;3.30;100.00
49801;BME280;35698;50.232;30.540;2023-03-03T04:52:09;100387.92;;;3.52;100.00
49801;BME280;35698;50.232;30.540;2023-03-03T04:53:13;100384.92;;;3.35;100.00
49801;BME280;35698;50.232;30.540;2023-03-03T04:54:24;100379.31;;;3.49;100.00
49801;BME280;35698;50.232;30.540;2023-03-03T04:55:27;100390.33;;;3.27;100.00
49801;BME280;35698;50.232;30.540;2023-03-03T04:56:39;100380.91;;;3.54;100.00
49801;BME280;35698;50.232;30.540;2023-03-03T04:57:42;100384.77;;;3.41;100.00
49801;BME280;35698;50.232;30.540;2023-03-03T04:59:04;100398.24;;;3.24;100.00
49801;BME280;35698;50.232;30.540;2023-03-03T05:00:10;100395.55;;;3.27;100.00
49801;BME280;35698;50.232;30.540;2023-03-03T05:01:21;100383.44;;;3.57;100.00
49801;BME280;35698;50.232;30.540;2023-03-03T05:02:25;100386.44;;;3.44;100.00
49801;BME280;35698;50.232;30.540;2023-03-03T05:04:06;100388.73;;;3.22;100.00
49801;BME280;35698;50.232;30.540;2023-03-03T05:05:10;100390.45;;;3.23;100.00
49801;BME280;35698;50.232;30.540;2023-03-03T05:06:21;100389.40;;;3.30;100.00
49801;BME280;35698;50.232;30.540;2023-03-03T05:07:24;100394.14;;;3.14;100.00
49801;BME280;35698;50.232;30.540;2023-03-03T05:08:46;100391.56;;;3.13;100.00
49801;BME280;35698;50.232;30.540;2023-03-03T05:09:49;100389.92;;;3.09;100.00
49801;BME280;35698;50.232;30.540;2023-03-03T05:10:53;100387.88;;;3.21;100.00
49801;BME280;35698;50.232;30.540;2023-03-03T05:11:57;100389.74;;;3.16;100.00
49801;BME280;35698;50.232;30.540;2023-03-03T05:13:08;100387.38;;;3.41;100.00
49801;BME280;35698;50.232;30.540;2023-03-03T05:14:11;100389.17;;;3.39;100.00
49801;BME280;35698;50.232;30.540;2023-03-03T05:15:32;100388.86;;;3.50;100.00
49801;BME280;35698;50.232;30.540;2023-03-03T05:16:44;100390.79;;;3.76;100.00
49801;BME280;35698;50.232;30.540;2023-03-03T05:17:47;100399.81;;;3.64;100.00
49801;BME280;35698;50.232;30.540;2023-03-03T05:19:08;100390.38;;;3.58;100.00
49801;BME280;35698;50.232;30.540;2023-03-03T05:20:19;100393.53;;;3.71;100.00
49801;BME280;35698;50.232;30.540;2023-03-03T05:21:23;100395.28;;;3.71;100.00
49801;BME280;35698;50.232;30.540;2023-03-03T05:22:44;100394.17;;;3.79;100.00
49801;BME280;35698;50.232;30.540;2023-03-03T05:23:47;100396.22;;;3.68;100.00
49801;BME280;35698;50.232;30.540;2023-03-03T05:24:58;100391.81;;;3.70;100.00
49801;BME280;35698;50.232;30.540;2023-03-03T05:26:02;100394.09;;;3.50;100.00
49801;BME280;35698;50.232;30.540;2023-03-03T05:30:03;100388.34;;;3.70;100.00
49801;BME280;35698;50.232;30.540;2023-03-03T05:31:21;100384.95;;;3.66;100.00
49801;BME280;35698;50.232;30.540;2023-03-03T05:32:25;100383.87;;;3.42;100.00
49801;BME280;35698;50.232;30.540;2023-03-03T05:33:44;100386.17;;;3.53;100.00
49801;BME280;35698;50.232;30.540;2023-03-03T05:34:47;100382.74;;;3.51;100.00
49801;BME280;35698;50.232;30.540;2023-03-03T05:35:58;100383.16;;;3.68;100.00
49801;BME280;35698;50.232;30.540;2023-03-03T05:37:02;100373.84;;;3.58;100.00
49801;BME280;35698;50.232;30.540;2023-03-03T05:38:05;100387.31;;;3.75;100.00
49801;BME280;35698;50.232;30.540;2023-03-03T05:39:16;100385.61;;;3.74;100.00
49801;BME280;35698;50.232;30.540;2023-03-03T05:40:20;100387.41;;;3.72;100.00
49801;BME280;35698;50.232;30.540;2023-03-03T05:41:31;100386.22;;;3.84;100.00
49801;BME280;35698;50.232;30.540;2023-03-03T05:42:34;100375.44;;;3.63;100.00
49801;BME280;35698;50.232;30.540;2023-03-03T05:43:38;100381.07;;;3.81;100.00
49801;BME280;35698;50.232;30.540;2023-03-03T05:44:41;100386.00;;;3.91;100.00
49801;BME280;35698;50.232;30.540;2023-03-03T05:46:03;100388.28;;;4.04;100.00
49801;BME280;35698;50.232;30.540;2023-03-03T05:47:14;100372.84;;;4.25;100.00
49801;BME280;35698;50.232;30.540;2023-03-03T05:48:19;100391.36;;;4.18;100.00
49801;BME280;35698;50.232;30.540;2023-03-03T05:49:31;100386.22;;;4.15;100.00
49801;BME280;35698;50.232;30.540;2023-03-03T05:50:35;100383.22;;;3.98;100.00
49801;BME280;35698;50.232;30.540;2023-03-03T05:51:47;100378.46;;;4.12;100.00
49801;BME280;35698;50.232;30.540;2023-03-03T05:52:51;100378.68;;;4.04;100.00
49801;BME280;35698;50.232;30.540;2023-03-03T05:53:57;100381.84;;;4.15;100.00
49801;BME280;35698;50.232;30.540;2023-03-03T05:55:00;100381.80;;;4.17;100.00
49801;BME280;35698;50.232;30.540;2023-03-03T05:56:12;100374.59;;;4.25;100.00
49801;BME280;35698;50.232;30.540;2023-03-03T05:57:18;100372.42;;;4.10;100.00
49801;BME280;35698;50.232;30.540;2023-03-03T05:58:22;100377.20;;;4.25;100.00
49801;BME280;35698;50.232;30.540;2023-03-03T05:59:25;100378.24;;;4.19;100.00
49801;BME280;35698;50.232;30.540;2023-03-03T06:00:29;100373.60;;;4.29;100.00
49801;BME280;35698;50.232;30.540;2023-03-03T06:01:40;100371.12;;;4.24;100.00
49801;BME280;35698;50.232;30.540;2023-03-03T06:02:45;100371.98;;;4.25;100.00
49801;BME280;35698;50.232;30.540;2023-03-03T06:03:56;100370.27;;;4.24;100.00
49801;BME280;35698;50.232;30.540;2023-03-03T06:05:11;100374.16;;;4.39;100.00
49801;BME280;35698;50.232;30.540;2023-03-03T06:06:17;100370.69;;;4.38;100.00
49801;BME280;35698;50.232;30.540;2023-03-03T06:07:39;100371.55;;;4.39;100.00
49801;BME280;35698;50.232;30.540;2023-03-03T06:09:03;100379.39;;;4.39;100.00
49801;BME280;35698;50.232;30.540;2023-03-03T06:10:08;100369.51;;;4.48;100.00
49801;BME280;35698;50.232;30.540;2023-03-03T06:11:26;100372.61;;;4.61;100.00
49801;BME280;35698;50.232;30.540;2023-03-03T06:12:29;100377.36;;;4.48;100.00
49801;BME280;35698;50.232;30.540;2023-03-03T06:13:32;100366.66;;;4.56;100.00
49801;BME280;35698;50.232;30.540;2023-03-03T06:14:38;100369.19;;;4.31;100.00
49801;BME280;35698;50.232;30.540;2023-03-03T06:15:42;100366.66;;;4.56;100.00
49801;BME280;35698;50.232;30.540;2023-03-03T06:16:46;100370.84;;;4.61;100.00
49801;BME280;35698;50.232;30.540;2023-03-03T06:17:54;100368.09;;;4.66;100.00
49801;BME280;35698;50.232;30.540;2023-03-03T06:19:05;100368.56;;;4.79;100.00
49801;BME280;35698;50.232;30.540;2023-03-03T06:20:10;100364.62;;;4.66;100.00
49801;BME280;35698;50.232;30.540;2023-03-03T06:21:25;100358.61;;;4.90;100.00
49801;BME280;35698;50.232;30.540;2023-03-03T06:23:43;100363.14;;;4.85;100.00
49801;BME280;35698;50.232;30.540;2023-03-03T06:26:23;100359.72;;;4.83;100.00
49801;BME280;35698;50.232;30.540;2023-03-03T06:27:49;100364.48;;;4.70;100.00